sensor_id;sensor_type;location;lat;lon;timestamp;pressure;altitude;pressure_sealevel;temperature;humidity
40838;BME280;29632;49.168;9.848;2023-04-25T00:01:15;96127.16;;;13.43;45.84
40838;BME280;29632;49.168;9.848;2023-04-25T00:03:41;96121.31;;;13.40;45.82
40838;BME280;29632;49.168;9.848;2023-04-25T00:06:06;96123.47;;;13.37;45.95
40838;BME280;29632;49.168;9.848;2023-04-25T00:08:33;96127.06;;;13.36;46.04
40838;BME280;29632;49.168;9.848;2023-04-25T00:10:58;96117.94;;;13.32;45.96
40838;BME280;29632;49.168;9.848;2023-04-25T00:13:25;96115.47;;;13.30;45.85
40838;BME280;29632;49.168;9.848;2023-04-25T00:15:51;96115.66;;;13.29;46.22
40838;BME280;29632;49.168;9.848;2023-04-25T00:18:19;96112.59;;;13.25;46.26
40838;BME280;29632;49.168;9.848;2023-04-25T00:20:45;96114.56;;;13.23;45.93
40838;BME280;29632;49.168;9.848;2023-04-25T00:23:15;96123.91;;;13.17;46.20
40838;BME280;29632;49.168;9.848;2023-04-25T00:25:47;96120.66;;;13.15;46.39
40838;BME280;29632;49.168;9.848;2023-04-25T00:28:13;96117.25;;;13.15;46.51
40838;BME280;29632;49.168;9.848;2023-04-25T00:30:40;96124.28;;;13.14;46.13
40838;BME280;29632;49.168;9.848;2023-04-25T00:33:06;96136.50;;;13.14;46.35
40838;BME280;29632;49.168;9.848;2023-04-25T00:35:32;96130.13;;;13.16;46.08
40838;BME280;29632;49.168;9.848;2023-04-25T00:37:57;96132.75;;;13.16;46.50
40838;BME280;29632;49.168;9.848;2023-04-25T00:40:23;96127.53;;;13.16;45.82
40838;BME280;29632;49.168;9.848;2023-04-25T00:42:49;96128.50;;;13.15;46.11
40838;BME280;29632;49.168;9.848;2023-04-25T00:45:16;96125.25;;;13.13;46.61
40838;BME280;29632;49.168;9.848;2023-04-25T00:47:42;96127.88;;;13.13;46.18
40838;BME280;29632;49.168;9.848;2023-04-25T00:50:08;96120.03;;;13.13;46.04
40838;BME280;29632;49.168;9.848;2023-04-25T00:52:35;96120.66;;;13.15;46.04
40838;BME280;29632;49.168;9.848;2023-04-25T00:55:01;96117.88;;;13.17;46.28
40838;BME280;29632;49.168;9.848;2023-04-25T00:57:26;96110.84;;;13.17;46.33
40838;BME280;29632;49.168;9.848;2023-04-25T00:59:52;96103.38;;;13.14;46.26
40838;BME280;29632;49.168;9.848;2023-04-25T01:02:19;96099.13;;;13.13;46.37
40838;BME280;29632;49.168;9.848;2023-04-25T01:04:46;96097.69;;;13.11;46.13
40838;BME280;29632;49.168;9.848;2023-04-25T01:07:13;96096.22;;;13.08;46.00
40838;BME280;29632;49.168;9.848;2023-04-25T01:09:39;96095.22;;;13.09;46.10
40838;BME280;29632;49.168;9.848;2023-04-25T01:12:04;96090.81;;;13.10;46.38
40838;BME280;29632;49.168;9.848;2023-04-25T01:14:30;96088.81;;;13.12;45.93
40838;BME280;29632;49.168;9.848;2023-04-25T01:16:56;96088.66;;;13.13;46.15
40838;BME280;29632;49.168;9.848;2023-04-25T01:19:22;96089.09;;;13.17;46.19
40838;BME280;29632;49.168;9.848;2023-04-25T01:21:48;96085.69;;;13.16;45.99
40838;BME280;29632;49.168;9.848;2023-04-25T01:24:15;96078.47;;;13.18;46.55
40838;BME280;29632;49.168;9.848;2023-04-25T01:26:41;96083.38;;;13.21;45.77
40838;BME280;29632;49.168;9.848;2023-04-25T01:29:13;96086.25;;;13.27;45.80
40838;BME280;29632;49.168;9.848;2023-04-25T01:31:39;96084.44;;;13.27;46.01
40838;BME280;29632;49.168;9.848;2023-04-25T01:34:05;96078.41;;;13.27;45.96
40838;BME280;29632;49.168;9.848;2023-04-25T01:36:30;96082.00;;;13.26;45.71
40838;BME280;29632;49.168;9.848;2023-04-25T01:38:56;96086.25;;;13.27;45.71
40838;BME280;29632;49.168;9.848;2023-04-25T01:41:22;96082.81;;;13.26;45.84
40838;BME280;29632;49.168;9.848;2023-04-25T01:43:48;96080.84;;;13.28;45.78
40838;BME280;29632;49.168;9.848;2023-04-25T01:46:14;96085.75;;;13.31;45.89
40838;BME280;29632;49.168;9.848;2023-04-25T01:48:40;96088.63;;;13.36;46.00
40838;BME280;29632;49.168;9.848;2023-04-25T01:51:06;96088.63;;;13.36;45.92
40838;BME280;29632;49.168;9.848;2023-04-25T01:53:31;96093.88;;;13.36;45.73
40838;BME280;29632;49.168;9.848;2023-04-25T01:55:57;96081.78;;;13.35;45.59
40838;BME280;29632;49.168;9.848;2023-04-25T01:58:23;96085.56;;;13.33;45.77
40838;BME280;29632;49.168;9.848;2023-04-25T02:00:48;96075.44;;;13.30;46.01
40838;BME280;29632;49.168;9.848;2023-04-25T02:03:14;96085.25;;;13.28;45.92
40838;BME280;29632;49.168;9.848;2023-04-25T02:05:40;96082.00;;;13.26;46.36
40838;BME280;29632;49.168;9.848;2023-04-25T02:08:06;96083.81;;;13.25;46.12
40838;BME280;29632;49.168;9.848;2023-04-25T02:10:33;96089.06;;;13.25;46.15
40838;BME280;29632;49.168;9.848;2023-04-25T02:12:59;96093.47;;;13.25;46.23
40838;BME280;29632;49.168;9.848;2023-04-25T02:15:25;96087.22;;;13.26;46.03
40838;BME280;29632;49.168;9.848;2023-04-25T02:17:50;96090.66;;;13.26;46.17
40838;BME280;29632;49.168;9.848;2023-04-25T02:20:20;96083.00;;;13.25;45.97
40838;BME280;29632;49.168;9.848;2023-04-25T02:22:45;96097.06;;;13.23;45.91
40838;BME280;29632;49.168;9.848;2023-04-25T02:25:12;96091.56;;;13.18;46.23
40838;BME280;29632;49.168;9.848;2023-04-25T02:27:37;96086.03;;;13.13;46.04
40838;BME280;29632;49.168;9.848;2023-04-25T02:30:04;96085.59;;;13.10;46.43
40838;BME280;29632;49.168;9.848;2023-04-25T02:32:32;96085.59;;;13.10;46.18
40838;BME280;29632;49.168;9.848;2023-04-25T02:35:00;96098.66;;;13.10;46.21
40838;BME280;29632;49.168;9.848;2023-04-25T02:37:33;96090.81;;;13.10;46.36
40838;BME280;29632;49.168;9.848;2023-04-25T02:39:59;96088.38;;;13.08;46.06
40838;BME280;29632;49.168;9.848;2023-04-25T02:42:26;96079.72;;;13.08;46.33
40838;BME280;29632;49.168;9.848;2023-04-25T02:44:51;96080.53;;;13.08;46.16
40838;BME280;29632;49.168;9.848;2023-04-25T02:47:17;96074.84;;;13.04;46.05
40838;BME280;29632;49.168;9.848;2023-04-25T02:49:42;96080.41;;;13.01;46.14
40838;BME280;29632;49.168;9.848;2023-04-25T02:52:08;96080.31;;;12.95;46.53
40838;BME280;29632;49.168;9.848;2023-04-25T02:54:34;96083.13;;;12.93;46.32
40838;BME280;29632;49.168;9.848;2023-04-25T02:57:00;96070.22;;;12.92;46.37
40838;BME280;29632;49.168;9.848;2023-04-25T02:59:26;96074.97;;;12.88;46.33
40838;BME280;29632;49.168;9.848;2023-04-25T03:01:51;96078.56;;;12.87;46.64
40838;BME280;29632;49.168;9.848;2023-04-25T03:04:17;96076.47;;;12.82;46.79
40838;BME280;29632;49.168;9.848;2023-04-25T03:06:44;96074.88;;;12.81;46.60
40838;BME280;29632;49.168;9.848;2023-04-25T03:09:10;96074.22;;;12.79;46.39
40838;BME280;29632;49.168;9.848;2023-04-25T03:11:38;96072.13;;;12.75;46.47
40838;BME280;29632;49.168;9.848;2023-04-25T03:14:04;96068.72;;;12.74;46.85
40838;BME280;29632;49.168;9.848;2023-04-25T03:16:29;96068.72;;;12.74;46.56
40838;BME280;29632;49.168;9.848;2023-04-25T03:18:56;96075.38;;;12.77;46.38
40838;BME280;29632;49.168;9.848;2023-04-25T03:21:22;96069.00;;;12.79;46.81
40838;BME280;29632;49.168;9.848;2023-04-25T03:23:48;96080.91;;;12.82;46.60
40838;BME280;29632;49.168;9.848;2023-04-25T03:26:14;96072.41;;;12.80;46.59
40838;BME280;29632;49.168;9.848;2023-04-25T03:28:39;96071.78;;;12.78;46.46
40838;BME280;29632;49.168;9.848;2023-04-25T03:31:05;96072.41;;;12.80;46.30
40838;BME280;29632;49.168;9.848;2023-04-25T03:33:31;96076.47;;;12.82;46.61
40838;BME280;29632;49.168;9.848;2023-04-25T03:35:57;96071.91;;;12.84;46.46
40838;BME280;29632;49.168;9.848;2023-04-25T03:38:22;96074.53;;;12.84;46.46
40838;BME280;29632;49.168;9.848;2023-04-25T03:40:49;96073.69;;;12.84;46.48
40838;BME280;29632;49.168;9.848;2023-04-25T03:43:16;96074.06;;;12.81;46.79
40838;BME280;29632;49.168;9.848;2023-04-25T03:45:42;96073.41;;;12.79;46.38
40838;BME280;29632;49.168;9.848;2023-04-25T03:48:08;96072.75;;;12.77;46.52
40838;BME280;29632;49.168;9.848;2023-04-25T03:50:33;96061.69;;;12.75;46.59
40838;BME280;29632;49.168;9.848;2023-04-25T03:52:59;96063.66;;;12.73;46.50
40838;BME280;29632;49.168;9.848;2023-04-25T03:55:25;96059.41;;;12.72;46.74
40838;BME280;29632;49.168;9.848;2023-04-25T03:57:51;96068.09;;;12.72;46.48
40838;BME280;29632;49.168;9.848;2023-04-25T04:00:16;96063.38;;;12.68;46.54
40838;BME280;29632;49.168;9.848;2023-04-25T04:02:42;96065.69;;;12.62;46.58
40838;BME280;29632;49.168;9.848;2023-04-25T04:05:08;96060.63;;;12.61;47.05
40838;BME280;29632;49.168;9.848;2023-04-25T04:07:33;96060.81;;;12.59;46.56
40838;BME280;29632;49.168;9.848;2023-04-25T04:10:06;96066.19;;;12.58;46.55
40838;BME280;29632;49.168;9.848;2023-04-25T04:12:33;96065.22;;;12.59;46.61
40838;BME280;29632;49.168;9.848;2023-04-25T04:14:58;96065.06;;;12.60;46.94
40838;BME280;29632;49.168;9.848;2023-04-25T04:17:24;96071.72;;;12.63;46.98
40838;BME280;29632;49.168;9.848;2023-04-25T04:19:50;96071.03;;;12.69;46.93
40838;BME280;29632;49.168;9.848;2023-04-25T04:22:16;96067.88;;;12.74;46.85
40838;BME280;29632;49.168;9.848;2023-04-25T04:24:41;96067.72;;;12.75;46.69
40838;BME280;29632;49.168;9.848;2023-04-25T04:27:11;96067.19;;;12.80;46.73
40838;BME280;29632;49.168;9.848;2023-04-25T04:29:38;96072.72;;;12.85;46.26
40838;BME280;29632;49.168;9.848;2023-04-25T04:32:04;96077.59;;;12.88;46.71
40838;BME280;29632;49.168;9.848;2023-04-25T04:34:30;96071.03;;;12.92;46.36
40838;BME280;29632;49.168;9.848;2023-04-25T04:36:56;96077.34;;;12.98;46.18
40838;BME280;29632;49.168;9.848;2023-04-25T04:39:22;96078.81;;;13.00;46.70
40838;BME280;29632;49.168;9.848;2023-04-25T04:41:48;96073.03;;;13.05;46.30
40838;BME280;29632;49.168;9.848;2023-04-25T04:44:14;96074.16;;;13.11;46.24
40838;BME280;29632;49.168;9.848;2023-04-25T04:46:40;96069.19;;;13.16;46.10
40838;BME280;29632;49.168;9.848;2023-04-25T04:49:10;96070.28;;;13.21;46.07
40838;BME280;29632;49.168;9.848;2023-04-25T04:51:37;96072.34;;;13.26;46.04
40838;BME280;29632;49.168;9.848;2023-04-25T04:54:03;96072.66;;;13.31;46.41
40838;BME280;29632;49.168;9.848;2023-04-25T04:56:29;96078.34;;;13.35;45.77
40838;BME280;29632;49.168;9.848;2023-04-25T04:58:57;96074.75;;;13.36;45.74
40838;BME280;29632;49.168;9.848;2023-04-25T05:01:22;96086.84;;;13.37;46.11
40838;BME280;29632;49.168;9.848;2023-04-25T05:03:48;96078.63;;;13.40;46.21
40838;BME280;29632;49.168;9.848;2023-04-25T05:06:14;96084.69;;;13.40;46.22
40838;BME280;29632;49.168;9.848;2023-04-25T05:08:40;96084.88;;;13.39;46.24
40838;BME280;29632;49.168;9.848;2023-04-25T05:11:05;96085.66;;;13.39;46.29
40838;BME280;29632;49.168;9.848;2023-04-25T05:13:31;96085.66;;;13.39;45.87
40838;BME280;29632;49.168;9.848;2023-04-25T05:15:57;96085.03;;;13.37;46.06
40838;BME280;29632;49.168;9.848;2023-04-25T05:18:22;96089.19;;;13.32;46.34
40838;BME280;29632;49.168;9.848;2023-04-25T05:20:48;96089.84;;;13.26;46.29
40838;BME280;29632;49.168;9.848;2023-04-25T05:23:13;96082.72;;;13.19;46.67
40838;BME280;29632;49.168;9.848;2023-04-25T05:25:39;96088.66;;;13.13;46.32
40838;BME280;29632;49.168;9.848;2023-04-25T05:28:05;96096.66;;;13.12;46.48
40838;BME280;29632;49.168;9.848;2023-04-25T05:30:31;96089.84;;;13.11;47.02
40838;BME280;29632;49.168;9.848;2023-04-25T05:32:56;96096.03;;;13.10;46.59
40838;BME280;29632;49.168;9.848;2023-04-25T05:35:22;96093.13;;;13.04;46.96
40838;BME280;29632;49.168;9.848;2023-04-25T05:37:48;96088.44;;;13.00;46.92
40838;BME280;29632;49.168;9.848;2023-04-25T05:40:14;96098.63;;;12.95;46.85
40838;BME280;29632;49.168;9.848;2023-04-25T05:42:39;96100.41;;;12.94;46.92
40838;BME280;29632;49.168;9.848;2023-04-25T05:45:05;96102.91;;;12.88;47.17
40838;BME280;29632;49.168;9.848;2023-04-25T05:47:31;96101.63;;;12.83;47.16
40838;BME280;29632;49.168;9.848;2023-04-25T05:49:57;96102.13;;;12.79;47.06
40838;BME280;29632;49.168;9.848;2023-04-25T05:52:22;96103.50;;;12.75;47.02
40838;BME280;29632;49.168;9.848;2023-04-25T05:54:48;96106.81;;;12.69;47.37
40838;BME280;29632;49.168;9.848;2023-04-25T05:57:21;96111.91;;;12.62;47.49
40838;BME280;29632;49.168;9.848;2023-04-25T05:59:47;96104.59;;;12.57;47.55
40838;BME280;29632;49.168;9.848;2023-04-25T06:02:13;96104.91;;;12.54;47.69
40838;BME280;29632;49.168;9.848;2023-04-25T06:04:39;96112.75;;;12.54;47.49
40838;BME280;29632;49.168;9.848;2023-04-25T06:07:04;96109.63;;;12.59;47.56
40838;BME280;29632;49.168;9.848;2023-04-25T06:09:30;96118.09;;;12.61;47.40
40838;BME280;29632;49.168;9.848;2023-04-25T06:11:56;96114.53;;;12.62;47.20
40838;BME280;29632;49.168;9.848;2023-04-25T06:14:21;96115.16;;;12.64;47.12
40838;BME280;29632;49.168;9.848;2023-04-25T06:16:47;96123.63;;;12.66;47.27
40838;BME280;29632;49.168;9.848;2023-04-25T06:19:12;96127.72;;;12.69;47.41
40838;BME280;29632;49.168;9.848;2023-04-25T06:21:38;96125.56;;;12.72;47.35
40838;BME280;29632;49.168;9.848;2023-04-25T06:24:04;96123.59;;;12.74;47.23
40838;BME280;29632;49.168;9.848;2023-04-25T06:26:29;96131.25;;;12.76;47.24
40838;BME280;29632;49.168;9.848;2023-04-25T06:28:55;96129.44;;;12.76;47.12
40838;BME280;29632;49.168;9.848;2023-04-25T06:31:21;96135.31;;;12.78;47.02
40838;BME280;29632;49.168;9.848;2023-04-25T06:33:46;96137.56;;;12.81;47.35
40838;BME280;29632;49.168;9.848;2023-04-25T06:36:13;96132.53;;;12.80;47.11
40838;BME280;29632;49.168;9.848;2023-04-25T06:38:39;96128.09;;;12.80;47.30
40838;BME280;29632;49.168;9.848;2023-04-25T06:41:05;96127.13;;;12.81;47.06
40838;BME280;29632;49.168;9.848;2023-04-25T06:43:31;96127.28;;;12.80;46.84
40838;BME280;29632;49.168;9.848;2023-04-25T06:45:59;96125.50;;;12.80;47.20
40838;BME280;29632;49.168;9.848;2023-04-25T06:48:27;96122.72;;;12.82;47.17
40838;BME280;29632;49.168;9.848;2023-04-25T06:50:52;96128.41;;;12.85;46.99
40838;BME280;29632;49.168;9.848;2023-04-25T06:53:18;96128.06;;;12.89;47.11
40838;BME280;29632;49.168;9.848;2023-04-25T06:55:44;96130.03;;;12.87;46.93
40838;BME280;29632;49.168;9.848;2023-04-25T06:58:09;96138.03;;;12.85;47.15
40838;BME280;29632;49.168;9.848;2023-04-25T07:00:35;96138.69;;;12.87;47.50
40838;BME280;29632;49.168;9.848;2023-04-25T07:03:01;96136.88;;;12.88;47.26
40838;BME280;29632;49.168;9.848;2023-04-25T07:05:27;96139.31;;;12.89;46.99
40838;BME280;29632;49.168;9.848;2023-04-25T07:07:53;96133.91;;;12.91;47.49
40838;BME280;29632;49.168;9.848;2023-04-25T07:10:18;96145.66;;;12.95;47.03
40838;BME280;29632;49.168;9.848;2023-04-25T07:12:44;96138.94;;;13.00;46.96
40838;BME280;29632;49.168;9.848;2023-04-25T07:15:10;96144.28;;;13.07;47.03
40838;BME280;29632;49.168;9.848;2023-04-25T07:17:37;96144.56;;;13.12;47.17
40838;BME280;29632;49.168;9.848;2023-04-25T07:20:04;96139.41;;;13.19;47.31
40838;BME280;29632;49.168;9.848;2023-04-25T07:22:29;96134.47;;;13.24;46.95
40838;BME280;29632;49.168;9.848;2023-04-25T07:24:55;96137.22;;;13.31;46.88
40838;BME280;29632;49.168;9.848;2023-04-25T07:27:21;96140.78;;;13.38;47.05
40838;BME280;29632;49.168;9.848;2023-04-25T07:29:46;96140.88;;;13.45;47.12
40838;BME280;29632;49.168;9.848;2023-04-25T07:32:12;96138.53;;;13.50;47.06
40838;BME280;29632;49.168;9.848;2023-04-25T07:34:39;96143.72;;;13.58;46.61
40838;BME280;29632;49.168;9.848;2023-04-25T07:37:05;96150.47;;;13.67;46.89
40838;BME280;29632;49.168;9.848;2023-04-25T07:39:31;96148.16;;;13.72;46.64
40838;BME280;29632;49.168;9.848;2023-04-25T07:41:56;96145.00;;;13.77;46.65
40838;BME280;29632;49.168;9.848;2023-04-25T07:44:24;96147.91;;;13.82;46.97
40838;BME280;29632;49.168;9.848;2023-04-25T07:46:49;96149.59;;;13.90;46.79
40838;BME280;29632;49.168;9.848;2023-04-25T07:49:15;96143.00;;;13.94;46.63
40838;BME280;29632;49.168;9.848;2023-04-25T07:51:41;96154.94;;;13.96;46.57
40838;BME280;29632;49.168;9.848;2023-04-25T07:54:09;96154.59;;;14.00;46.63
40838;BME280;29632;49.168;9.848;2023-04-25T07:56:35;96158.81;;;14.01;46.47
40838;BME280;29632;49.168;9.848;2023-04-25T07:59:00;96170.09;;;14.01;46.98
40838;BME280;29632;49.168;9.848;2023-04-25T08:01:26;96174.50;;;14.01;47.07
40838;BME280;29632;49.168;9.848;2023-04-25T08:03:52;96168.31;;;14.02;46.96
40838;BME280;29632;49.168;9.848;2023-04-25T08:06:18;96171.91;;;14.01;46.75
40838;BME280;29632;49.168;9.848;2023-04-25T08:08:44;96179.41;;;14.04;46.63
40838;BME280;29632;49.168;9.848;2023-04-25T08:11:09;96170.81;;;14.10;46.80
40838;BME280;29632;49.168;9.848;2023-04-25T08:13:36;96180.31;;;14.11;46.71
40838;BME280;29632;49.168;9.848;2023-04-25T08:16:01;96180.75;;;14.14;46.86
40838;BME280;29632;49.168;9.848;2023-04-25T08:18:27;96181.19;;;14.18;46.64
40838;BME280;29632;49.168;9.848;2023-04-25T08:20:53;96191.94;;;14.23;46.60
40838;BME280;29632;49.168;9.848;2023-04-25T08:23:19;96185.16;;;14.29;46.55
40838;BME280;29632;49.168;9.848;2023-04-25T08:25:44;96191.69;;;14.33;46.64
40838;BME280;29632;49.168;9.848;2023-04-25T08:28:10;96199.34;;;14.34;46.67
40838;BME280;29632;49.168;9.848;2023-04-25T08:30:36;96193.75;;;14.38;46.58
40838;BME280;29632;49.168;9.848;2023-04-25T08:33:02;96201.06;;;14.42;46.92
40838;BME280;29632;49.168;9.848;2023-04-25T08:35:28;96206.75;;;14.46;46.87
40838;BME280;29632;49.168;9.848;2023-04-25T08:37:53;96209.63;;;14.51;46.77
40838;BME280;29632;49.168;9.848;2023-04-25T08:40:19;96210.56;;;14.58;46.80
40838;BME280;29632;49.168;9.848;2023-04-25T08:42:53;96216.69;;;14.65;46.29
40838;BME280;29632;49.168;9.848;2023-04-25T08:45:18;96226.28;;;14.73;46.47
40838;BME280;29632;49.168;9.848;2023-04-25T08:47:45;96222.91;;;14.79;46.61
40838;BME280;29632;49.168;9.848;2023-04-25T08:50:11;96221.34;;;14.85;46.48
40838;BME280;29632;49.168;9.848;2023-04-25T08:52:43;96219.16;;;14.88;46.28
40838;BME280;29632;49.168;9.848;2023-04-25T08:55:09;96209.13;;;14.92;46.31
40838;BME280;29632;49.168;9.848;2023-04-25T08:57:37;96221.50;;;14.98;46.40
40838;BME280;29632;49.168;9.848;2023-04-25T09:00:03;96226.41;;;15.01;46.36
40838;BME280;29632;49.168;9.848;2023-04-25T09:02:29;96230.25;;;15.05;46.43
40838;BME280;29632;49.168;9.848;2023-04-25T09:04:55;96223.84;;;15.08;46.26
40838;BME280;29632;49.168;9.848;2023-04-25T09:07:21;96230.97;;;15.14;46.11
40838;BME280;29632;49.168;9.848;2023-04-25T09:09:47;96231.03;;;15.21;46.00
40838;BME280;29632;49.168;9.848;2023-04-25T09:12:13;96231.72;;;15.29;46.05
40838;BME280;29632;49.168;9.848;2023-04-25T09:14:38;96237.47;;;15.40;46.18
40838;BME280;29632;49.168;9.848;2023-04-25T09:17:04;96239.34;;;15.46;45.98
40838;BME280;29632;49.168;9.848;2023-04-25T09:19:32;96238.41;;;15.54;45.79
40838;BME280;29632;49.168;9.848;2023-04-25T09:22:00;96244.34;;;15.62;45.91
40838;BME280;29632;49.168;9.848;2023-04-25T09:24:36;96247.84;;;15.70;45.83
40838;BME280;29632;49.168;9.848;2023-04-25T09:27:06;96240.59;;;15.72;45.72
40838;BME280;29632;49.168;9.848;2023-04-25T09:29:33;96250.16;;;15.79;45.77
40838;BME280;29632;49.168;9.848;2023-04-25T09:32:19;96244.41;;;15.91;45.72
40838;BME280;29632;49.168;9.848;2023-04-25T09:34:50;96252.16;;;15.99;45.51
40838;BME280;29632;49.168;9.848;2023-04-25T09:37:21;96248.75;;;16.05;45.45
40838;BME280;29632;49.168;9.848;2023-04-25T09:39:48;96259.69;;;16.09;45.38
40838;BME280;29632;49.168;9.848;2023-04-25T09:42:15;96251.03;;;16.15;45.33
40838;BME280;29632;49.168;9.848;2023-04-25T09:44:45;96256.91;;;16.17;45.54
40838;BME280;29632;49.168;9.848;2023-04-25T09:47:15;96255.09;;;16.17;45.44
40838;BME280;29632;49.168;9.848;2023-04-25T09:49:42;96257.97;;;16.22;45.42
40838;BME280;29632;49.168;9.848;2023-04-25T09:52:15;96257.59;;;16.26;45.49
40838;BME280;29632;49.168;9.848;2023-04-25T09:54:41;96261.00;;;16.26;45.21
40838;BME280;29632;49.168;9.848;2023-04-25T09:57:18;96256.13;;;16.23;45.35
40838;BME280;29632;49.168;9.848;2023-04-25T09:59:48;96251.72;;;16.23;45.49
40838;BME280;29632;49.168;9.848;2023-04-25T10:02:19;96255.53;;;16.21;45.46
40838;BME280;29632;49.168;9.848;2023-04-25T10:04:51;96248.41;;;16.15;45.62
40838;BME280;29632;49.168;9.848;2023-04-25T10:07:18;96257.09;;;16.15;45.59
40838;BME280;29632;49.168;9.848;2023-04-25T10:09:48;96255.88;;;16.11;45.57
40838;BME280;29632;49.168;9.848;2023-04-25T10:12:16;96256.13;;;16.16;45.74
40838;BME280;29632;49.168;9.848;2023-04-25T10:14:42;96253.69;;;16.21;45.47
40838;BME280;29632;49.168;9.848;2023-04-25T10:17:10;96260.22;;;16.26;45.63
40838;BME280;29632;49.168;9.848;2023-04-25T10:19:35;96263.69;;;16.33;45.61
40838;BME280;29632;49.168;9.848;2023-04-25T10:22:11;96261.69;;;16.35;45.39
40838;BME280;29632;49.168;9.848;2023-04-25T10:24:37;96259.84;;;16.35;45.25
40838;BME280;29632;49.168;9.848;2023-04-25T10:27:04;96260.28;;;16.39;45.50
40838;BME280;29632;49.168;9.848;2023-04-25T10:29:30;96258.72;;;16.45;45.38
40838;BME280;29632;49.168;9.848;2023-04-25T10:31:55;96264.81;;;16.52;45.01
40838;BME280;29632;49.168;9.848;2023-04-25T10:34:40;96261.81;;;16.61;45.10
40838;BME280;29632;49.168;9.848;2023-04-25T10:37:11;96256.59;;;16.68;44.99
40838;BME280;29632;49.168;9.848;2023-04-25T10:39:41;96264.53;;;16.75;44.99
40838;BME280;29632;49.168;9.848;2023-04-25T10:42:07;96258.28;;;16.83;44.84
40838;BME280;29632;49.168;9.848;2023-04-25T10:44:33;96266.41;;;16.88;44.87
40838;BME280;29632;49.168;9.848;2023-04-25T10:47:01;96264.84;;;16.93;44.72
40838;BME280;29632;49.168;9.848;2023-04-25T10:49:42;96269.13;;;17.01;44.51
40838;BME280;29632;49.168;9.848;2023-04-25T10:52:15;96274.97;;;17.03;44.49
40838;BME280;29632;49.168;9.848;2023-04-25T10:54:55;96271.16;;;17.06;44.46
40838;BME280;29632;49.168;9.848;2023-04-25T10:57:42;96274.44;;;17.14;44.59
40838;BME280;29632;49.168;9.848;2023-04-25T11:00:17;96267.38;;;17.22;44.36
40838;BME280;29632;49.168;9.848;2023-04-25T11:02:51;96277.72;;;17.30;44.16
40838;BME280;29632;49.168;9.848;2023-04-25T11:05:29;96278.34;;;17.39;44.41
40838;BME280;29632;49.168;9.848;2023-04-25T11:07:55;96275.91;;;17.44;44.17
40838;BME280;29632;49.168;9.848;2023-04-25T11:10:34;96280.16;;;17.45;44.05
40838;BME280;29632;49.168;9.848;2023-04-25T11:13:03;96283.81;;;17.44;44.05
40838;BME280;29632;49.168;9.848;2023-04-25T11:15:28;96284.03;;;17.42;44.16
40838;BME280;29632;49.168;9.848;2023-04-25T11:17:55;96292.13;;;17.41;43.85
40838;BME280;29632;49.168;9.848;2023-04-25T11:20:21;96282.81;;;17.45;43.98
40838;BME280;29632;49.168;9.848;2023-04-25T11:22:47;96282.41;;;17.48;44.04
40838;BME280;29632;49.168;9.848;2023-04-25T11:25:14;96287.06;;;17.52;44.09
40838;BME280;29632;49.168;9.848;2023-04-25T11:27:53;96283.66;;;17.59;43.87
40838;BME280;29632;49.168;9.848;2023-04-25T11:30:20;96285.69;;;17.63;43.82
40838;BME280;29632;49.168;9.848;2023-04-25T11:32:46;96282.81;;;17.65;44.01
40838;BME280;29632;49.168;9.848;2023-04-25T11:35:13;96293.16;;;17.66;43.96
40838;BME280;29632;49.168;9.848;2023-04-25T11:37:40;96294.59;;;17.69;43.97
40838;BME280;29632;49.168;9.848;2023-04-25T11:40:06;96288.31;;;17.70;43.85
40838;BME280;29632;49.168;9.848;2023-04-25T11:42:33;96291.78;;;17.70;43.80
40838;BME280;29632;49.168;9.848;2023-04-25T11:44:59;96287.91;;;17.66;43.90
40838;BME280;29632;49.168;9.848;2023-04-25T11:47:32;96285.91;;;17.68;43.96
40838;BME280;29632;49.168;9.848;2023-04-25T11:49:59;96291.34;;;17.73;43.82
40838;BME280;29632;49.168;9.848;2023-04-25T11:52:39;96293.59;;;17.83;43.87
40838;BME280;29632;49.168;9.848;2023-04-25T11:55:16;96295.88;;;17.93;43.75
40838;BME280;29632;49.168;9.848;2023-04-25T11:57:42;96297.50;;;18.01;43.68
40838;BME280;29632;49.168;9.848;2023-04-25T12:00:17;96295.84;;;18.06;43.39
40838;BME280;29632;49.168;9.848;2023-04-25T12:02:44;96296.06;;;18.11;43.41
40838;BME280;29632;49.168;9.848;2023-04-25T12:05:11;96298.69;;;18.18;43.21
40838;BME280;29632;49.168;9.848;2023-04-25T12:07:37;96294.84;;;18.27;43.28
40838;BME280;29632;49.168;9.848;2023-04-25T12:10:11;96302.34;;;18.37;43.05
40838;BME280;29632;49.168;9.848;2023-04-25T12:12:38;96300.09;;;18.41;43.06
40838;BME280;29632;49.168;9.848;2023-04-25T12:15:23;96309.00;;;18.40;43.06
40838;BME280;29632;49.168;9.848;2023-04-25T12:17:50;96312.88;;;18.37;42.96
40838;BME280;29632;49.168;9.848;2023-04-25T12:20:26;96308.81;;;18.35;42.98
40838;BME280;29632;49.168;9.848;2023-04-25T12:22:52;96311.88;;;18.32;43.05
40838;BME280;29632;49.168;9.848;2023-04-25T12:25:37;96312.28;;;18.28;43.48
40838;BME280;29632;49.168;9.848;2023-04-25T12:28:17;96305.56;;;18.26;43.13
40838;BME280;29632;49.168;9.848;2023-04-25T12:31:02;96311.06;;;18.24;43.16
40838;BME280;29632;49.168;9.848;2023-04-25T12:33:30;96305.19;;;18.22;43.07
40838;BME280;29632;49.168;9.848;2023-04-25T12:35:56;96315.72;;;18.22;43.16
40838;BME280;29632;49.168;9.848;2023-04-25T12:38:27;96319.59;;;18.20;43.37
40838;BME280;29632;49.168;9.848;2023-04-25T12:40:57;96318.59;;;18.21;43.39
40838;BME280;29632;49.168;9.848;2023-04-25T12:43:23;96328.50;;;18.19;42.93
40838;BME280;29632;49.168;9.848;2023-04-25T12:45:49;96326.06;;;18.17;43.23
40838;BME280;29632;49.168;9.848;2023-04-25T12:48:16;96330.94;;;18.07;43.21
40838;BME280;29632;49.168;9.848;2023-04-25T12:50:42;96334.97;;;17.96;43.58
40838;BME280;29632;49.168;9.848;2023-04-25T12:53:08;96332.91;;;17.85;43.56
40838;BME280;29632;49.168;9.848;2023-04-25T12:55:34;96340.38;;;17.68;43.51
40838;BME280;29632;49.168;9.848;2023-04-25T12:58:00;96349.41;;;17.45;43.85
40838;BME280;29632;49.168;9.848;2023-04-25T13:00:26;96357.25;;;17.25;43.98